Time;durP1;ratioP1;P1;durP2;ratioP2;P2;SDS_P1;SDS_P2;PMS_P1;PMS_P2;Temp;Humidity;BMP_temperature;BMP_pressure;BME280_temperature;BME280_humidity;BME280_pressure;Samples;Min_cycle;Max_cycle;Signal;HPM_P1;HPM_P2
2021/03/19 00:02:16;;;;;;;0.00;0.00;;;2.90;92.30;;;;;;5050986;28;20382;-80
2021/03/19 00:04:42;;;;;;;0.00;0.00;;;2.80;92.20;;;;;;5050736;28;20377;-79
2021/03/19 00:07:08;;;;;;;0.00;0.00;;;2.80;92.30;;;;;;5050560;28;20819;-80
2021/03/19 00:09:33;;;;;;;0.00;0.00;;;2.80;92.40;;;;;;5049333;28;20417;-80
2021/03/19 00:11:59;;;;;;;0.00;0.00;;;2.70;92.40;;;;;;5050505;28;20405;-80
2021/03/19 00:14:24;;;;;;;0.00;0.00;;;2.70;92.50;;;;;;5050932;28;20419;-80
2021/03/19 00:16:50;;;;;;;0.00;0.00;;;2.70;92.50;;;;;;5048817;28;20464;-80
2021/03/19 00:19:18;;;;;;;0.00;0.00;;;2.70;92.50;;;;;;5050865;28;20381;-81
2021/03/19 00:21:44;;;;;;;0.00;0.00;;;2.70;92.20;;;;;;5049126;28;20389;-79
2021/03/19 00:24:09;;;;;;;0.10;0.10;;;2.70;92.10;;;;;;5050601;28;20447;-80
2021/03/19 00:26:35;;;;;;;0.00;0.00;;;2.60;92.00;;;;;;5050010;28;20374;-79
2021/03/19 00:29:00;;;;;;;0.00;0.00;;;2.60;92.30;;;;;;5050738;28;20412;-80
2021/03/19 00:31:26;;;;;;;0.00;0.00;;;2.50;92.50;;;;;;5050272;28;20412;-81
2021/03/19 00:33:51;;;;;;;0.00;0.00;;;2.40;92.80;;;;;;5050422;28;20402;-81
2021/03/19 00:36:17;;;;;;;0.00;0.00;;;2.50;92.50;;;;;;5050294;28;20412;-80
2021/03/19 00:38:42;;;;;;;0.00;0.00;;;2.50;92.40;;;;;;5050301;28;20396;-81
2021/03/19 00:41:08;;;;;;;0.00;0.00;;;2.50;92.50;;;;;;5049347;28;20882;-81
2021/03/19 00:43:34;;;;;;;0.00;0.00;;;2.50;92.50;;;;;;5051226;28;20428;-82
2021/03/19 00:45:59;;;;;;;0.00;0.00;;;2.40;92.50;;;;;;5057456;28;20830;-80
2021/03/19 00:48:25;;;;;;;0.10;0.10;;;2.40;92.70;;;;;;5056410;28;20757;-80
2021/03/19 00:50:51;;;;;;;0.00;0.00;;;2.40;92.70;;;;;;5057482;28;20381;-80
2021/03/19 00:53:17;;;;;;;0.00;0.00;;;2.40;92.80;;;;;;5056718;28;20759;-81
2021/03/19 00:55:42;;;;;;;0.00;0.00;;;2.40;92.70;;;;;;5057152;28;20388;-80
2021/03/19 00:58:08;;;;;;;0.00;0.00;;;2.40;92.50;;;;;;5056240;28;20761;-81
2021/03/19 01:00:35;;;;;;;0.10;0.10;;;2.40;92.20;;;;;;5057065;28;20381;-80
2021/03/19 01:03:03;;;;;;;0.00;0.00;;;2.30;92.30;;;;;;5056591;28;20730;-81
2021/03/19 01:05:35;;;;;;;0.10;0.10;;;2.30;92.30;;;;;;5055803;28;20400;-80
2021/03/19 01:08:02;;;;;;;0.00;0.00;;;2.30;92.30;;;;;;5056408;28;20460;-81
2021/03/19 01:10:32;;;;;;;0.10;0.10;;;2.20;92.30;;;;;;5056368;28;20889;-81
2021/03/19 01:12:58;;;;;;;0.00;0.00;;;2.30;92.30;;;;;;5056672;28;20412;-80
2021/03/19 01:15:25;;;;;;;0.00;0.00;;;2.20;92.40;;;;;;5055339;28;20890;-80
2021/03/19 01:17:51;;;;;;;0.00;0.00;;;2.20;92.50;;;;;;5056460;28;20381;-80
2021/03/19 01:20:17;;;;;;;0.00;0.00;;;2.20;92.50;;;;;;5056825;28;20404;-81
2021/03/19 01:22:43;;;;;;;0.10;0.10;;;2.20;92.70;;;;;;5056788;28;20373;-81
2021/03/19 01:25:16;;;;;;;0.00;0.00;;;2.20;92.70;;;;;;5055201;28;20414;-81
2021/03/19 01:27:42;;;;;;;0.00;0.00;;;2.20;92.60;;;;;;5055069;28;20420;-81
2021/03/19 01:30:11;;;;;;;0.10;0.10;;;2.10;92.70;;;;;;5056490;28;20373;-81
2021/03/19 01:32:37;;;;;;;0.00;0.00;;;2.20;92.60;;;;;;5055212;28;21021;-81
2021/03/19 01:35:04;;;;;;;0.00;0.00;;;2.20;92.70;;;;;;5056741;28;20468;-81
2021/03/19 01:37:29;;;;;;;0.10;0.10;;;2.20;92.60;;;;;;5055973;28;20414;-81
2021/03/19 01:39:55;;;;;;;0.00;0.00;;;2.20;92.60;;;;;;5056999;28;20435;-81
2021/03/19 01:42:21;;;;;;;0.10;0.10;;;2.20;92.70;;;;;;5056278;28;20424;-81
2021/03/19 01:45:07;;;;;;;0.00;0.00;;;2.20;92.70;;;;;;5056606;28;20451;-81
2021/03/19 01:48:11;;;;;;;0.00;0.00;;;2.30;92.70;;;;;;5055748;28;20407;-80
2021/03/19 01:51:15;;;;;;;0.00;0.00;;;2.10;92.60;;;;;;5055093;28;20415;-81
2021/03/19 01:54:18;;;;;;;0.00;0.00;;;2.10;92.70;;;;;;5056563;28;20543;-81
2021/03/19 01:57:21;;;;;;;0.00;0.00;;;2.00;92.90;;;;;;5052684;28;20459;-81
2021/03/19 02:00:24;;;;;;;0.00;0.00;;;2.00;92.60;;;;;;5053464;28;20377;-81
2021/03/19 02:03:27;;;;;;;0.00;0.00;;;2.00;92.60;;;;;;5053170;28;20392;-80
2021/03/19 02:06:30;;;;;;;0.00;0.00;;;2.00;92.70;;;;;;5052025;28;20400;-80
2021/03/19 02:09:33;;;;;;;0.00;0.00;;;2.00;92.80;;;;;;5052180;28;20385;-81
2021/03/19 02:12:36;;;;;;;0.10;0.10;;;2.00;92.90;;;;;;5051562;28;20940;-81
2021/03/19 02:15:39;;;;;;;0.00;0.00;;;2.00;92.80;;;;;;5052739;28;20476;-81
2021/03/19 02:18:42;;;;;;;0.00;0.00;;;1.90;92.70;;;;;;5050911;28;20400;-80
2021/03/19 02:21:46;;;;;;;0.00;0.00;;;1.90;92.70;;;;;;5051670;28;20385;-80
2021/03/19 02:24:49;;;;;;;0.10;0.10;;;2.00;92.70;;;;;;5051347;28;20397;-80
2021/03/19 02:27:52;;;;;;;0.00;0.00;;;2.00;92.50;;;;;;5050792;28;20480;-81
2021/03/19 02:30:55;;;;;;;0.00;0.00;;;1.90;92.50;;;;;;5051505;28;20389;-81
2021/03/19 02:33:21;;;;;;;0.00;0.00;;;1.80;92.60;;;;;;5052344;28;20397;-81
2021/03/19 02:35:55;;;;;;;0.00;0.00;;;1.90;92.90;;;;;;5053063;28;20439;-80
2021/03/19 02:38:21;;;;;;;0.00;0.00;;;1.90;92.80;;;;;;5051888;28;20401;-80
2021/03/19 02:40:48;;;;;;;0.10;0.10;;;1.80;93.00;;;;;;5051034;28;20390;-81
2021/03/19 02:43:15;;;;;;;0.00;0.00;;;1.90;92.90;;;;;;5052722;28;20435;-81
2021/03/19 02:45:41;;;;;;;0.10;0.10;;;1.90;92.70;;;;;;5052498;28;20431;-81
2021/03/19 02:48:07;;;;;;;0.00;0.00;;;1.90;92.50;;;;;;5052156;28;20758;-80
2021/03/19 02:50:33;;;;;;;0.03;0.03;;;1.80;92.40;;;;;;5052176;28;20382;-81
2021/03/19 02:52:58;;;;;;;0.10;0.10;;;1.70;92.30;;;;;;5052250;28;20422;-80
2021/03/19 02:55:24;;;;;;;0.00;0.00;;;1.70;92.80;;;;;;5051631;28;20792;-80
2021/03/19 02:57:49;;;;;;;0.00;0.00;;;1.60;92.20;;;;;;5050848;28;20397;-79
2021/03/19 03:00:19;;;;;;;0.00;0.00;;;1.60;92.50;;;;;;5051537;28;20384;-80
2021/03/19 03:02:45;;;;;;;0.00;0.00;;;1.60;92.40;;;;;;5050759;28;20444;-80
2021/03/19 03:05:11;;;;;;;0.00;0.00;;;1.60;92.60;;;;;;5051726;28;20850;-80
2021/03/19 03:07:37;;;;;;;0.03;0.03;;;1.60;92.30;;;;;;5050476;28;20727;-81
2021/03/19 03:10:05;;;;;;;0.10;0.10;;;1.50;91.90;;;;;;5051901;28;20719;-80
2021/03/19 03:12:31;;;;;;;0.10;0.10;;;1.60;92.30;;;;;;5051393;28;20504;-81
2021/03/19 03:14:56;;;;;;;0.05;0.05;;;1.60;91.90;;;;;;5051624;28;20538;-80
2021/03/19 03:17:22;;;;;;;0.10;0.10;;;1.50;92.00;;;;;;5051106;28;20385;-80
2021/03/19 03:19:48;;;;;;;0.10;0.10;;;1.50;91.90;;;;;;5051938;28;20377;-80
2021/03/19 03:22:14;;;;;;;0.10;0.10;;;1.50;91.80;;;;;;5051425;28;20382;-80
2021/03/19 03:24:39;;;;;;;0.08;0.08;;;1.50;92.00;;;;;;5052005;28;20377;-80
2021/03/19 03:27:08;;;;;;;0.00;0.00;;;1.60;92.10;;;;;;5049439;28;20660;-80
2021/03/19 03:29:34;;;;;;;0.00;0.00;;;1.50;91.80;;;;;;5051760;28;20381;-81
2021/03/19 03:31:59;;;;;;;0.00;0.00;;;1.60;91.90;;;;;;5049785;28;20404;-80
2021/03/19 03:34:25;;;;;;;0.10;0.10;;;1.60;91.90;;;;;;5050208;28;20515;-80
2021/03/19 03:36:51;;;;;;;0.00;0.00;;;1.60;91.90;;;;;;5051337;28;20389;-80
2021/03/19 03:39:23;;;;;;;0.00;0.00;;;1.50;92.10;;;;;;5051512;28;20435;-81
2021/03/19 03:41:49;;;;;;;0.00;0.00;;;1.50;92.40;;;;;;5050003;28;20436;-81
2021/03/19 03:44:16;;;;;;;0.10;0.10;;;1.60;91.90;;;;;;5050778;28;20385;-81
2021/03/19 03:46:44;;;;;;;0.10;0.10;;;1.60;91.90;;;;;;5050829;28;20417;-80
2021/03/19 03:49:10;;;;;;;0.08;0.08;;;1.60;91.90;;;;;;5050881;28;20468;-81
2021/03/19 03:51:35;;;;;;;0.10;0.10;;;1.60;91.90;;;;;;5051127;28;20473;-80
2021/03/19 03:54:01;;;;;;;0.00;0.00;;;1.50;91.50;;;;;;5050799;28;20373;-81
2021/03/19 03:56:28;;;;;;;0.00;0.00;;;1.40;91.80;;;;;;5051042;28;20750;-81
2021/03/19 03:58:54;;;;;;;0.00;0.00;;;1.40;91.80;;;;;;5049290;28;20381;-81
2021/03/19 04:01:19;;;;;;;0.00;0.00;;;1.30;91.80;;;;;;5050817;28;20382;-81
2021/03/19 04:03:45;;;;;;;0.10;0.10;;;1.30;92.00;;;;;;5050694;28;20382;-80
2021/03/19 04:06:11;;;;;;;0.10;0.10;;;1.30;92.00;;;;;;5050779;28;20744;-80
2021/03/19 04:08:38;;;;;;;0.00;0.00;;;1.20;92.00;;;;;;5050399;28;20392;-80
2021/03/19 04:11:07;;;;;;;0.00;0.00;;;1.10;92.20;;;;;;5049342;28;20405;-80
2021/03/19 04:13:33;;;;;;;0.00;0.00;;;1.10;92.10;;;;;;5049097;28;20406;-81
2021/03/19 04:15:59;;;;;;;0.10;0.10;;;1.10;92.10;;;;;;5050664;28;20472;-81
2021/03/19 04:18:26;;;;;;;0.10;0.10;;;1.10;92.00;;;;;;5048513;28;20472;-82
2021/03/19 04:20:56;;;;;;;0.10;0.10;;;1.00;91.90;;;;;;5050430;28;20378;-82
2021/03/19 04:23:23;;;;;;;0.10;0.10;;;0.90;92.00;;;;;;5050521;28;20381;-81
2021/03/19 04:25:50;;;;;;;0.05;0.05;;;0.90;92.10;;;;;;5050494;28;20385;-81
2021/03/19 04:28:20;;;;;;;0.10;0.10;;;0.90;92.10;;;;;;5050281;28;20461;-80
2021/03/19 04:30:47;;;;;;;0.00;0.00;;;0.90;92.20;;;;;;5049516;28;20742;-81
2021/03/19 04:33:25;;;;;;;0.10;0.10;;;0.90;92.00;;;;;;5048918;28;20444;-81
2021/03/19 04:36:14;;;;;;;0.03;0.03;;;0.80;91.80;;;;;;5049380;28;20397;-81
2021/03/19 04:38:40;;;;;;;0.10;0.10;;;0.80;91.80;;;;;;5049976;28;20730;-81
2021/03/19 04:41:08;;;;;;;0.00;0.00;;;0.70;91.70;;;;;;5050652;28;21074;-81
2021/03/19 04:43:34;;;;;;;0.00;0.00;;;0.70;91.70;;;;;;5050393;28;20389;-81
2021/03/19 04:46:00;;;;;;;0.10;0.10;;;0.70;91.60;;;;;;5050678;28;20392;-81
2021/03/19 04:48:25;;;;;;;0.10;0.10;;;0.60;91.60;;;;;;5048774;28;20730;-81
2021/03/19 04:50:51;;;;;;;0.00;0.00;;;0.60;91.50;;;;;;5051125;28;20374;-81
2021/03/19 04:53:16;;;;;;;0.00;0.00;;;0.50;91.50;;;;;;5049121;28;20943;-81
2021/03/19 04:55:42;;;;;;;0.10;0.10;;;0.40;91.70;;;;;;5049988;28;20381;-81
2021/03/19 04:58:07;;;;;;;0.10;0.10;;;0.50;91.60;;;;;;5050035;28;20392;-81
2021/03/19 05:00:33;;;;;;;0.10;0.10;;;0.50;91.50;;;;;;5050026;28;20853;-81
2021/03/19 05:02:58;;;;;;;0.00;0.00;;;0.60;91.30;;;;;;5048880;28;20393;-81
2021/03/19 05:05:31;;;;;;;0.10;0.10;;;0.50;91.30;;;;;;5049986;28;20381;-82
2021/03/19 05:07:58;;;;;;;0.00;0.00;;;0.40;91.30;;;;;;5050013;28;20380;-81
2021/03/19 05:10:28;;;;;;;0.10;0.10;;;0.60;91.30;;;;;;5050036;28;20731;-82
2021/03/19 05:12:56;;;;;;;0.10;0.10;;;0.60;90.90;;;;;;5048730;28;20443;-82
2021/03/19 05:15:23;;;;;;;0.10;0.10;;;0.50;90.90;;;;;;5049672;28;20424;-82
2021/03/19 05:17:49;;;;;;;0.10;0.10;;;0.40;90.80;;;;;;5048480;28;20744;-81
2021/03/19 05:20:15;;;;;;;0.10;0.10;;;0.40;90.70;;;;;;5049704;28;20497;-80
2021/03/19 05:22:41;;;;;;;0.10;0.10;;;0.40;90.80;;;;;;5048288;28;20902;-80
2021/03/19 05:25:11;;;;;;;0.10;0.10;;;0.50;91.30;;;;;;5050113;28;20381;-82
2021/03/19 05:27:37;;;;;;;0.10;0.10;;;0.70;90.80;;;;;;5049128;28;20878;-81
2021/03/19 05:30:04;;;;;;;0.03;0.03;;;0.40;90.20;;;;;;5050094;28;20485;-82
2021/03/19 05:32:30;;;;;;;0.00;0.00;;;0.50;90.80;;;;;;5051585;28;20776;-82
2021/03/19 05:34:56;;;;;;;0.10;0.10;;;0.40;90.50;;;;;;5051495;28;20419;-82
2021/03/19 05:37:21;;;;;;;0.00;0.00;;;0.30;90.50;;;;;;5052909;28;20385;-81
2021/03/19 05:39:47;;;;;;;0.10;0.10;;;0.40;90.60;;;;;;5053617;28;20405;-82
2021/03/19 05:42:16;;;;;;;0.10;0.10;;;0.40;90.60;;;;;;5051842;28;20424;-82
2021/03/19 05:45:11;;;;;;;0.10;0.10;;;0.40;90.30;;;;;;5052644;28;20923;-82
2021/03/19 05:47:37;;;;;;;0.10;0.10;;;0.30;90.20;;;;;;5052519;28;20378;-81
2021/03/19 05:50:03;;;;;;;0.10;0.10;;;0.20;90.40;;;;;;5053501;28;20401;-83
2021/03/19 05:52:34;;;;;;;0.10;0.10;;;0.30;90.50;;;;;;5053052;28;20451;-82
2021/03/19 05:55:12;;;;;;;0.10;0.10;;;0.30;90.50;;;;;;5051831;28;20785;-83
2021/03/19 05:57:37;;;;;;;0.10;0.10;;;0.40;90.20;;;;;;5051673;28;20386;-83
2021/03/19 06:00:06;;;;;;;0.10;0.10;;;0.20;90.20;;;;;;5052964;28;20708;-83
2021/03/19 06:02:38;;;;;;;0.00;0.00;;;0.20;90.30;;;;;;5053294;28;20390;-82
2021/03/19 06:05:17;;;;;;;0.10;0.10;;;0.10;90.40;;;;;;5053181;28;20377;-83
2021/03/19 06:07:55;;;;;;;0.10;0.10;;;0.20;90.80;;;;;;5051500;28;20396;-82
2021/03/19 06:10:23;;;;;;;0.10;0.10;;;0.20;90.20;;;;;;5052904;28;20385;-83
2021/03/19 06:12:52;;;;;;;0.10;0.10;;;0.10;90.30;;;;;;5052852;28;20416;-82
2021/03/19 06:15:30;;;;;;;0.10;0.10;;;0.10;90.00;;;;;;5052899;28;20390;-82
2021/03/19 06:17:59;;;;;;;0.10;0.10;;;0.10;90.50;;;;;;5052480;28;20390;-82
2021/03/19 06:20:26;;;;;;;0.10;0.10;;;0.00;90.50;;;;;;5053195;28;20389;-82
2021/03/19 06:22:54;;;;;;;0.10;0.10;;;0.20;90.50;;;;;;5053000;28;20385;-81
2021/03/19 06:25:36;;;;;;;0.10;0.10;;;0.30;90.50;;;;;;5051993;28;20393;-83
2021/03/19 06:28:24;;;;;;;0.10;0.10;;;0.30;90.10;;;;;;5052416;28;20385;-83
2021/03/19 06:30:50;;;;;;;0.10;0.10;;;0.20;89.50;;;;;;5050969;28;20420;-82
2021/03/19 06:33:27;;;;;;;0.10;0.10;;;0.20;89.70;;;;;;5052665;28;20468;-83
2021/03/19 06:36:21;;;;;;;0.10;0.10;;;0.20;89.60;;;;;;5052696;28;20443;-83
2021/03/19 06:39:09;;;;;;;0.10;0.10;;;0.20;89.50;;;;;;5052297;28;20451;-82
2021/03/19 06:41:37;;;;;;;0.10;0.10;;;0.20;89.10;;;;;;5050627;28;20393;-82
2021/03/19 06:44:23;;;;;;;0.10;0.10;;;0.20;89.00;;;;;;5051172;28;20874;-82
2021/03/19 06:46:58;;;;;;;0.00;0.00;;;0.20;89.40;;;;;;5052043;28;20439;-82
2021/03/19 06:49:24;;;;;;;0.10;0.10;;;0.30;89.30;;;;;;5050933;28;20886;-82
2021/03/19 06:52:23;;;;;;;0.10;0.10;;;0.30;88.70;;;;;;5052046;28;20823;-82
2021/03/19 06:54:52;;;;;;;0.10;0.10;;;0.30;88.00;;;;;;5050816;28;20405;-81
2021/03/19 06:57:20;;;;;;;0.10;0.10;;;0.30;88.90;;;;;;5051829;28;20429;-82
2021/03/19 06:59:50;;;;;;;0.10;0.10;;;0.30;88.10;;;;;;5051791;28;20382;-82
2021/03/19 07:02:44;;;;;;;0.10;0.10;;;0.40;89.00;;;;;;5051821;28;20403;-82
2021/03/19 07:05:42;;;;;;;0.10;0.10;;;0.40;88.20;;;;;;5052045;28;20468;-82
2021/03/19 07:08:23;;;;;;;0.00;0.00;;;0.40;88.30;;;;;;5049210;28;20992;-83
2021/03/19 07:11:26;;;;;;;0.10;0.10;;;0.50;87.40;;;;;;5050557;28;20385;-83
2021/03/19 07:14:00;;;;;;;0.00;0.00;;;0.50;87.20;;;;;;5050899;28;20406;-82
2021/03/19 07:16:48;;;;;;;0.00;0.00;;;0.60;87.40;;;;;;5050375;28;20396;-81
2021/03/19 07:19:23;;;;;;;0.10;0.10;;;0.60;87.20;;;;;;5050073;28;20394;-81
2021/03/19 07:22:10;;;;;;;0.05;0.05;;;0.60;86.90;;;;;;5050850;28;20385;-81
2021/03/19 07:25:15;;;;;;;0.10;0.10;;;0.70;86.80;;;;;;5049657;28;20417;-81
2021/03/19 07:28:04;;;;;;;0.00;0.00;;;0.70;86.80;;;;;;5050083;28;20388;-81
2021/03/19 07:30:56;;;;;;;0.00;0.00;;;0.70;86.30;;;;;;5050218;28;20399;-82
2021/03/19 07:33:21;;;;;;;0.03;0.03;;;0.80;85.60;;;;;;5049438;28;20439;-81
2021/03/19 07:36:02;;;;;;;0.00;0.00;;;0.80;86.60;;;;;;5050152;28;20386;-82
2021/03/19 07:38:45;;;;;;;0.03;0.03;;;0.90;86.40;;;;;;5049433;28;20494;-82
2021/03/19 07:41:18;;;;;;;0.10;0.10;;;0.90;85.80;;;;;;5050742;28;20663;-81
2021/03/19 07:44:05;;;;;;;0.00;0.00;;;0.90;86.60;;;;;;5050384;28;20429;-81
2021/03/19 07:47:01;;;;;;;0.10;0.10;;;0.90;86.40;;;;;;5050083;28;20466;-82
2021/03/19 07:49:48;;;;;;;0.10;0.10;;;1.00;85.30;;;;;;5050123;28;20381;-81
2021/03/19 07:52:25;;;;;;;0.00;0.00;;;1.10;85.30;;;;;;5050025;28;20804;-83
2021/03/19 07:55:13;;;;;;;0.10;0.10;;;1.20;84.70;;;;;;5049507;28;20386;-82
2021/03/19 07:57:51;;;;;;;0.10;0.10;;;1.20;84.70;;;;;;5045757;28;20761;-82
2021/03/19 08:00:22;;;;;;;0.10;0.10;;;1.20;85.00;;;;;;5048829;28;20397;-82
2021/03/19 08:03:02;;;;;;;0.10;0.10;;;1.40;85.20;;;;;;5049154;28;20801;-81
2021/03/19 08:05:50;;;;;;;0.00;0.00;;;1.40;84.10;;;;;;5049863;28;20385;-82
2021/03/19 08:08:36;;;;;;;0.05;0.05;;;1.50;84.80;;;;;;5048325;28;20393;-81
2021/03/19 08:11:10;;;;;;;0.03;0.03;;;1.50;84.80;;;;;;5049950;28;20480;-81
2021/03/19 08:14:00;;;;;;;0.00;0.00;;;1.60;84.80;;;;;;5050038;28;20789;-82
2021/03/19 08:16:42;;;;;;;0.00;0.00;;;1.60;84.70;;;;;;5046117;28;20406;-81
2021/03/19 08:19:33;;;;;;;0.00;0.00;;;1.80;83.30;;;;;;5048528;28;20394;-81
2021/03/19 08:22:21;;;;;;;0.00;0.00;;;1.80;83.20;;;;;;5047640;28;20443;-81
2021/03/19 08:25:00;;;;;;;0.10;0.10;;;1.80;83.40;;;;;;5046622;28;20413;-81
2021/03/19 08:27:51;;;;;;;0.00;0.00;;;1.90;82.50;;;;;;5046475;28;20455;-80
2021/03/19 08:30:27;;;;;;;0.00;0.00;;;1.90;83.20;;;;;;5049534;28;20968;-80
2021/03/19 08:33:05;;;;;;;0.00;0.00;;;2.00;83.00;;;;;;5048341;28;20414;-81
2021/03/19 08:35:46;;;;;;;0.00;0.00;;;2.00;82.80;;;;;;5048616;28;20390;-80
2021/03/19 08:38:35;;;;;;;0.08;0.08;;;2.10;82.10;;;;;;5047500;28;20389;-80
2021/03/19 08:41:07;;;;;;;0.00;0.00;;;2.40;82.30;;;;;;5049753;28;20374;-81
2021/03/19 08:43:42;;;;;;;0.00;0.00;;;2.50;81.50;;;;;;5049259;28;20395;-81
2021/03/19 08:46:15;;;;;;;0.00;0.00;;;2.40;80.60;;;;;;5048991;28;20496;-80
2021/03/19 08:48:59;;;;;;;0.00;0.00;;;2.50;80.00;;;;;;5047825;28;20494;-80
2021/03/19 08:51:28;;;;;;;0.00;0.00;;;2.80;79.50;;;;;;5048406;28;20427;-80
2021/03/19 08:54:18;;;;;;;0.00;0.00;;;3.00;78.70;;;;;;5049391;28;20405;-80
2021/03/19 08:56:51;;;;;;;0.00;0.00;;;3.20;78.60;;;;;;5045807;28;20397;-80
2021/03/19 08:59:47;;;;;;;0.00;0.00;;;3.00;76.70;;;;;;5048768;28;20898;-79
2021/03/19 09:02:25;;;;;;;0.00;0.00;;;3.10;78.10;;;;;;5049581;28;20389;-80
2021/03/19 09:04:50;;;;;;;0.10;0.10;;;3.00;77.60;;;;;;5049991;28;20389;-80
2021/03/19 09:07:24;;;;;;;0.00;0.00;;;2.90;77.00;;;;;;5052794;28;20381;-80
2021/03/19 09:09:52;;;;;;;0.00;0.00;;;3.40;76.70;;;;;;5053209;28;20389;-81
2021/03/19 09:12:22;;;;;;;0.00;0.00;;;3.30;75.10;;;;;;5052052;28;20412;-81
2021/03/19 09:15:12;;;;;;;0.00;0.00;;;3.50;73.90;;;;;;5051574;28;20813;-81
2021/03/19 09:17:44;;;;;;;0.00;0.00;;;3.90;73.70;;;;;;5052520;28;20389;-80
2021/03/19 09:20:38;;;;;;;0.00;0.00;;;3.80;72.40;;;;;;5053471;28;20400;-81
2021/03/19 09:23:10;;;;;;;0.00;0.00;;;4.10;70.20;;;;;;5051527;28;20451;-81
2021/03/19 09:25:51;;;;;;;0.00;0.00;;;3.70;70.00;;;;;;5053351;28;20496;-81
2021/03/19 09:28:19;;;;;;;0.00;0.00;;;4.30;70.10;;;;;;5052501;28;20397;-81
2021/03/19 09:31:05;;;;;;;0.00;0.00;;;4.30;70.60;;;;;;5052872;28;20389;-81
2021/03/19 09:33:43;;;;;;;0.00;0.00;;;4.80;70.10;;;;;;5053292;28;20454;-81
2021/03/19 09:36:46;;;;;;;0.00;0.00;;;4.40;68.00;;;;;;5053017;28;20390;-82
2021/03/19 09:39:55;;;;;;;0.00;0.00;;;4.40;66.00;;;;;;5052909;28;20398;-83
2021/03/19 09:42:20;;;;;;;0.00;0.00;;;4.30;66.80;;;;;;5052892;28;20488;-82
2021/03/19 09:44:58;;;;;;;0.00;0.00;;;4.00;66.60;;;;;;5052518;28;20472;-81
2021/03/19 09:47:30;;;;;;;0.00;0.00;;;3.90;66.10;;;;;;5051284;28;20400;-82
2021/03/19 09:50:21;;;;;;;0.00;0.00;;;3.90;68.60;;;;;;5052369;28;20385;-83
2021/03/19 09:53:05;;;;;;;0.00;0.00;;;4.10;66.10;;;;;;5052402;28;20405;-82
2021/03/19 09:55:47;;;;;;;0.00;0.00;;;4.10;66.90;;;;;;5052633;28;20382;-83
2021/03/19 09:58:34;;;;;;;0.00;0.00;;;4.20;66.00;;;;;;5051753;28;20386;-84
2021/03/19 10:01:24;;;;;;;0.00;0.00;;;4.80;67.00;;;;;;5051107;28;20398;-84
2021/03/19 10:03:59;;;;;;;0.00;0.00;;;4.80;63.70;;;;;;5052262;28;20384;-82
2021/03/19 10:06:36;;;;;;;0.10;0.10;;;4.90;64.70;;;;;;5052345;28;20848;-82
2021/03/19 10:09:10;;;;;;;0.00;0.00;;;5.00;63.10;;;;;;5051911;28;20385;-83
2021/03/19 10:11:49;;;;;;;0.00;0.00;;;5.40;62.80;;;;;;5050741;28;20413;-83
2021/03/19 10:14:25;;;;;;;0.00;0.00;;;5.50;63.20;;;;;;5052529;28;20443;-83
2021/03/19 10:17:27;;;;;;;0.10;0.10;;;5.40;61.80;;;;;;5051059;28;20928;-83
2021/03/19 10:19:54;;;;;;;0.10;0.10;;;5.70;63.50;;;;;;5052320;28;20404;-83
2021/03/19 10:22:41;;;;;;;0.10;0.10;;;5.60;60.10;;;;;;5052169;28;20389;-84
2021/03/19 10:25:27;;;;;;;0.10;0.10;;;5.30;61.40;;;;;;5051989;28;20385;-84
2021/03/19 10:27:57;;;;;;;0.10;0.10;;;5.40;59.50;;;;;;5050832;28;20401;-85
2021/03/19 10:30:30;;;;;;;0.10;0.10;;;5.00;59.40;;;;;;5050602;28;20397;-84
2021/03/19 10:33:12;;;;;;;0.10;0.10;;;5.10;61.10;;;;;;5052440;28;20464;-84
2021/03/19 10:35:42;;;;;;;0.00;0.00;;;5.80;62.40;;;;;;5050286;28;20404;-84
2021/03/19 10:38:29;;;;;;;0.10;0.10;;;5.90;59.10;;;;;;5050088;28;20401;-82
2021/03/19 10:40:59;;;;;;;0.10;0.10;;;5.80;57.70;;;;;;5051776;28;20393;-85
2021/03/19 10:43:34;;;;;;;0.10;0.10;;;6.00;58.90;;;;;;5051745;28;20465;-84
2021/03/19 10:46:24;;;;;;;0.10;0.10;;;5.90;55.20;;;;;;5051790;28;20389;-85
2021/03/19 10:48:55;;;;;;;0.03;0.03;;;6.00;55.60;;;;;;5051372;28;20413;-85
2021/03/19 10:51:39;;;;;;;0.10;0.10;;;6.00;56.80;;;;;;5051661;28;20457;-84
2021/03/19 10:54:33;;;;;;;0.10;0.10;;;5.90;57.80;;;;;;5049987;28;20413;-84
2021/03/19 10:57:03;;;;;;;0.00;0.00;;;6.30;56.40;;;;;;5050476;28;20390;-84
2021/03/19 10:59:29;;;;;;;0.10;0.10;;;5.90;59.80;;;;;;5051886;28;20388;-84
2021/03/19 11:02:07;;;;;;;0.00;0.00;;;6.40;58.90;;;;;;5051076;28;20480;-84
2021/03/19 11:04:38;;;;;;;0.00;0.00;;;6.60;55.50;;;;;;5051702;28;20762;-85
2021/03/19 11:07:27;;;;;;;0.03;0.03;;;6.10;56.10;;;;;;5049346;28;20390;-84
2021/03/19 11:10:15;;;;;;;0.80;0.63;;;5.90;53.90;;;;;;5051227;28;20385;-85
2021/03/19 11:12:45;;;;;;;0.00;0.00;;;6.30;54.60;;;;;;5049753;28;20416;-84
2021/03/19 11:15:21;;;;;;;0.00;0.00;;;6.10;55.00;;;;;;5049798;28;20394;-83
2021/03/19 11:17:47;;;;;;;0.10;0.10;;;6.00;55.70;;;;;;5049321;28;20415;-84
2021/03/19 11:20:31;;;;;;;0.00;0.00;;;6.00;55.70;;;;;;5050841;28;20374;-84
2021/03/19 11:22:57;;;;;;;0.05;0.05;;;6.60;55.80;;;;;;5049868;28;20394;-84
2021/03/19 11:25:42;;;;;;;0.00;0.00;;;6.50;55.40;;;;;;5053399;28;20507;-83
2021/03/19 11:28:21;;;;;;;0.00;0.00;;;7.00;53.50;;;;;;5038428;28;20427;-84
2021/03/19 11:30:50;;;;;;;0.00;0.00;;;7.00;49.80;;;;;;5049968;28;20435;-84
2021/03/19 11:33:18;;;;;;;0.00;0.00;;;6.60;52.80;;;;;;5049195;28;20806;-84
2021/03/19 11:36:12;;;;;;;0.00;0.00;;;7.20;53.70;;;;;;5050268;28;20485;-84
2021/03/19 11:38:41;;;;;;;0.00;0.00;;;6.60;54.10;;;;;;5047841;28;20405;-83
2021/03/19 11:41:31;;;;;;;0.00;0.00;;;6.60;54.00;;;;;;5050528;28;20381;-84
2021/03/19 11:43:57;;;;;;;0.00;0.00;;;6.30;53.00;;;;;;5050869;28;20452;-84
2021/03/19 11:46:23;;;;;;;0.00;0.00;;;6.30;53.10;;;;;;5050060;28;20505;-83
2021/03/19 11:48:49;;;;;;;0.00;0.00;;;6.40;53.50;;;;;;5048915;28;20416;-83
2021/03/19 11:51:17;;;;;;;0.00;0.00;;;6.40;50.70;;;;;;5048743;28;20408;-83
2021/03/19 11:53:43;;;;;;;0.00;0.00;;;6.40;50.80;;;;;;5049240;28;20417;-84
2021/03/19 11:56:09;;;;;;;0.08;0.08;;;6.40;51.60;;;;;;5050117;28;20385;-85
2021/03/19 11:58:35;;;;;;;0.00;0.00;;;6.80;53.00;;;;;;5049662;28;21066;-84
2021/03/19 12:01:04;;;;;;;0.00;0.00;;;6.30;53.10;;;;;;5048721;28;20378;-84
2021/03/19 12:03:47;;;;;;;0.00;0.00;;;6.20;54.90;;;;;;5049821;28;20854;-83
2021/03/19 12:06:15;;;;;;;0.00;0.00;;;6.10;51.70;;;;;;5050443;28;20925;-84
2021/03/19 12:08:42;;;;;;;0.08;0.08;;;6.40;52.10;;;;;;5047410;28;20472;-83
2021/03/19 12:11:11;;;;;;;0.00;0.00;;;6.60;52.70;;;;;;5050259;28;20369;-83
2021/03/19 12:13:37;;;;;;;0.00;0.00;;;7.10;49.30;;;;;;5049495;28;20405;-82
2021/03/19 12:16:03;;;;;;;0.10;0.10;;;7.40;49.70;;;;;;5049857;28;20385;-84
2021/03/19 12:18:29;;;;;;;0.10;0.10;;;7.10;50.50;;;;;;5049334;28;20471;-83
2021/03/19 12:20:56;;;;;;;0.08;0.08;;;7.40;48.90;;;;;;5049563;28;20893;-83
2021/03/19 12:23:24;;;;;;;0.10;0.10;;;7.10;50.10;;;;;;5049475;28;20392;-83
2021/03/19 12:25:50;;;;;;;0.00;0.00;;;7.90;51.70;;;;;;5048356;28;20393;-85
2021/03/19 12:28:20;;;;;;;0.00;0.00;;;6.80;47.70;;;;;;5049103;28;20385;-82
2021/03/19 12:30:47;;;;;;;0.00;0.00;;;6.70;48.10;;;;;;5049393;28;20393;-82
2021/03/19 12:33:13;;;;;;;0.00;0.00;;;7.40;47.30;;;;;;5048149;28;20875;-83
2021/03/19 12:35:42;;;;;;;0.00;0.00;;;7.70;47.50;;;;;;5048248;28;20404;-83
2021/03/19 12:38:08;;;;;;;0.00;0.00;;;8.30;46.20;;;;;;5049773;28;20405;-83
2021/03/19 12:40:33;;;;;;;0.00;0.00;;;7.40;45.90;;;;;;5047927;28;20397;-83
2021/03/19 12:42:59;;;;;;;0.00;0.00;;;7.30;44.60;;;;;;5048717;28;20427;-83
2021/03/19 12:45:29;;;;;;;0.10;0.10;;;7.90;46.60;;;;;;5049619;28;20388;-84
2021/03/19 12:47:55;;;;;;;0.10;0.10;;;8.40;46.90;;;;;;5047822;28;20750;-83
2021/03/19 12:50:24;;;;;;;0.10;0.10;;;8.10;44.50;;;;;;5048300;28;20397;-83
2021/03/19 12:52:49;;;;;;;0.10;0.10;;;7.70;42.80;;;;;;5049572;28;20411;-83
2021/03/19 12:55:15;;;;;;;0.60;0.27;;;7.90;43.50;;;;;;5049520;28;20385;-82
2021/03/19 12:57:40;;;;;;;4.88;2.83;;;8.00;45.30;;;;;;5049180;28;20461;-82
2021/03/19 13:00:08;;;;;;;0.22;0.20;;;8.50;44.60;;;;;;5048872;28;20492;-83
2021/03/19 13:02:33;;;;;;;0.80;0.68;;;8.30;42.50;;;;;;5047188;28;20905;-84
2021/03/19 13:04:59;;;;;;;2.25;1.30;;;8.70;45.70;;;;;;5047727;28;20390;-82
2021/03/19 13:07:25;;;;;;;2.57;1.67;;;8.60;43.20;;;;;;5046914;28;20386;-84
2021/03/19 13:09:50;;;;;;;3.40;0.95;;;8.90;43.60;;;;;;5047374;28;20386;-83
2021/03/19 13:12:17;;;;;;;5.00;3.10;;;8.50;44.90;;;;;;5048532;28;20500;-83
2021/03/19 13:14:43;;;;;;;1.65;0.90;;;8.90;44.30;;;;;;5049337;28;20401;-83
2021/03/19 13:17:08;;;;;;;1.52;0.82;;;8.50;44.80;;;;;;5047511;28;20387;-81
2021/03/19 13:19:34;;;;;;;0.10;0.10;;;7.70;45.60;;;;;;5047885;28;20438;-85
2021/03/19 13:21:59;;;;;;;0.08;0.08;;;7.40;46.30;;;;;;5048512;28;20382;-83
2021/03/19 13:24:25;;;;;;;0.00;0.00;;;7.40;46.50;;;;;;5048143;28;20512;-84
2021/03/19 13:26:51;;;;;;;0.00;0.00;;;8.10;45.50;;;;;;5047170;28;20433;-81
2021/03/19 13:29:16;;;;;;;0.00;0.00;;;7.40;46.30;;;;;;5049046;28;20385;-83
2021/03/19 13:31:42;;;;;;;0.00;0.00;;;7.20;46.60;;;;;;5049174;28;20866;-82
2021/03/19 13:34:09;;;;;;;0.10;0.10;;;7.50;44.50;;;;;;5047487;28;20919;-83